sensor_id;sensor_type;location;lat;lon;timestamp;temperature;humidity
68943;DHT22;60852;52.190;4.422;2023-03-01T00:02:16;3.03;76.60
68943;DHT22;60852;52.190;4.422;2023-03-01T00:04:42;2.97;76.87
68943;DHT22;60852;52.190;4.422;2023-03-01T00:07:07;3.00;77.14
68943;DHT22;60852;52.190;4.422;2023-03-01T00:09:33;2.97;77.36
68943;DHT22;60852;52.190;4.422;2023-03-01T00:11:58;2.97;77.43
68943;DHT22;60852;52.190;4.422;2023-03-01T00:14:24;2.96;77.55
68943;DHT22;60852;52.190;4.422;2023-03-01T00:16:49;2.91;77.93
68943;DHT22;60852;52.190;4.422;2023-03-01T00:19:17;2.96;78.18
68943;DHT22;60852;52.190;4.422;2023-03-01T00:21:44;2.93;77.99
68943;DHT22;60852;52.190;4.422;2023-03-01T00:24:10;2.91;77.98
68943;DHT22;60852;52.190;4.422;2023-03-01T00:26:36;2.87;78.27
68943;DHT22;60852;52.190;4.422;2023-03-01T00:29:01;2.81;78.68
68943;DHT22;60852;52.190;4.422;2023-03-01T00:31:30;2.83;79.15
68943;DHT22;60852;52.190;4.422;2023-03-01T00:33:58;2.84;79.23
68943;DHT22;60852;52.190;4.422;2023-03-01T00:36:27;2.86;79.39
68943;DHT22;60852;52.190;4.422;2023-03-01T00:38:53;2.90;79.43
68943;DHT22;60852;52.190;4.422;2023-03-01T00:41:20;2.88;79.35
68943;DHT22;60852;52.190;4.422;2023-03-01T00:43:46;2.88;79.66
68943;DHT22;60852;52.190;4.422;2023-03-01T00:46:17;2.88;79.93
68943;DHT22;60852;52.190;4.422;2023-03-01T00:48:43;2.91;80.17
68943;DHT22;60852;52.190;4.422;2023-03-01T00:51:14;2.87;80.55
68943;DHT22;60852;52.190;4.422;2023-03-01T00:53:40;2.83;81.01
68943;DHT22;60852;52.190;4.422;2023-03-01T00:56:07;2.84;81.38
68943;DHT22;60852;52.190;4.422;2023-03-01T00:58:34;2.84;81.52
68943;DHT22;60852;52.190;4.422;2023-03-01T01:01:01;2.83;81.62
68943;DHT22;60852;52.190;4.422;2023-03-01T01:03:31;2.80;81.86
68943;DHT22;60852;52.190;4.422;2023-03-01T01:05:57;2.83;81.87
68943;DHT22;60852;52.190;4.422;2023-03-01T01:08:22;2.86;82.00
68943;DHT22;60852;52.190;4.422;2023-03-01T01:10:48;2.81;82.24
68943;DHT22;60852;52.190;4.422;2023-03-01T01:13:13;2.81;82.12
68943;DHT22;60852;52.190;4.422;2023-03-01T01:15:40;2.81;82.20
68943;DHT22;60852;52.190;4.422;2023-03-01T01:18:06;2.79;82.19
68943;DHT22;60852;52.190;4.422;2023-03-01T01:20:32;2.79;82.47
68943;DHT22;60852;52.190;4.422;2023-03-01T01:22:57;2.77;82.79
68943;DHT22;60852;52.190;4.422;2023-03-01T01:25:23;2.77;82.95
68943;DHT22;60852;52.190;4.422;2023-03-01T01:27:50;2.77;82.85
68943;DHT22;60852;52.190;4.422;2023-03-01T01:30:16;2.83;82.67
68943;DHT22;60852;52.190;4.422;2023-03-01T01:32:42;2.79;82.63
68943;DHT22;60852;52.190;4.422;2023-03-01T01:35:08;2.79;82.45
68943;DHT22;60852;52.190;4.422;2023-03-01T01:37:34;2.81;82.51
68943;DHT22;60852;52.190;4.422;2023-03-01T01:40:01;2.76;82.37
68943;DHT22;60852;52.190;4.422;2023-03-01T01:42:29;2.76;82.75
68943;DHT22;60852;52.190;4.422;2023-03-01T01:45:31;2.80;82.84
68943;DHT22;60852;52.190;4.422;2023-03-01T01:48:06;2.80;82.72
68943;DHT22;60852;52.190;4.422;2023-03-01T01:50:35;2.80;82.58
68943;DHT22;60852;52.190;4.422;2023-03-01T01:53:12;2.77;82.52
68943;DHT22;60852;52.190;4.422;2023-03-01T01:55:44;2.73;82.70
68943;DHT22;60852;52.190;4.422;2023-03-01T01:58:15;2.73;82.78
68943;DHT22;60852;52.190;4.422;2023-03-01T02:00:43;2.72;82.93
68943;DHT22;60852;52.190;4.422;2023-03-01T02:03:18;2.70;83.27
68943;DHT22;60852;52.190;4.422;2023-03-01T02:06:19;2.70;83.27
68943;DHT22;60852;52.190;4.422;2023-03-01T02:08:48;2.61;83.51
68943;DHT22;60852;52.190;4.422;2023-03-01T02:11:14;2.61;83.63
68943;DHT22;60852;52.190;4.422;2023-03-01T02:13:42;2.56;83.81
68943;DHT22;60852;52.190;4.422;2023-03-01T02:16:10;2.59;84.00
68943;DHT22;60852;52.190;4.422;2023-03-01T02:18:39;2.59;83.99
68943;DHT22;60852;52.190;4.422;2023-03-01T02:21:30;2.56;83.87
68943;DHT22;60852;52.190;4.422;2023-03-01T02:24:05;2.53;84.30
68943;DHT22;60852;52.190;4.422;2023-03-01T02:26:52;2.52;84.37
68943;DHT22;60852;52.190;4.422;2023-03-01T02:29:21;2.54;84.41
68943;DHT22;60852;52.190;4.422;2023-03-01T02:31:49;2.56;84.67
68943;DHT22;60852;52.190;4.422;2023-03-01T02:34:18;2.53;84.78
68943;DHT22;60852;52.190;4.422;2023-03-01T02:36:52;2.49;84.97
68943;DHT22;60852;52.190;4.422;2023-03-01T02:39:26;2.43;85.15
68943;DHT22;60852;52.190;4.422;2023-03-01T02:41:56;2.39;85.35
68943;DHT22;60852;52.190;4.422;2023-03-01T02:44:23;2.39;85.44
68943;DHT22;60852;52.190;4.422;2023-03-01T02:46:54;2.38;85.49
68943;DHT22;60852;52.190;4.422;2023-03-01T02:49:33;2.36;85.38
68943;DHT22;60852;52.190;4.422;2023-03-01T02:57:19;2.36;85.80
68943;DHT22;60852;52.190;4.422;2023-03-01T02:59:45;2.33;86.00
68943;DHT22;60852;52.190;4.422;2023-03-01T03:02:26;2.29;86.03
68943;DHT22;60852;52.190;4.422;2023-03-01T03:05:31;2.30;86.16
68943;DHT22;60852;52.190;4.422;2023-03-01T03:07:59;2.32;86.17
68943;DHT22;60852;52.190;4.422;2023-03-01T03:10:37;2.36;86.20
68943;DHT22;60852;52.190;4.422;2023-03-01T03:13:13;2.30;86.30
68943;DHT22;60852;52.190;4.422;2023-03-01T03:15:39;2.30;86.17
68943;DHT22;60852;52.190;4.422;2023-03-01T03:18:15;2.29;86.20
68943;DHT22;60852;52.190;4.422;2023-03-01T03:20:42;2.32;86.41
68943;DHT22;60852;52.190;4.422;2023-03-01T03:23:08;2.32;86.47
68943;DHT22;60852;52.190;4.422;2023-03-01T03:25:33;2.32;86.39
68943;DHT22;60852;52.190;4.422;2023-03-01T03:28:04;2.32;86.40
68943;DHT22;60852;52.190;4.422;2023-03-01T03:30:37;2.33;86.27
68943;DHT22;60852;52.190;4.422;2023-03-01T03:33:05;2.33;86.28
68943;DHT22;60852;52.190;4.422;2023-03-01T03:35:34;2.36;86.27
68943;DHT22;60852;52.190;4.422;2023-03-01T03:38:04;2.28;86.08
68943;DHT22;60852;52.190;4.422;2023-03-01T03:40:37;2.29;86.17
68943;DHT22;60852;52.190;4.422;2023-03-01T03:43:04;2.30;86.13
68943;DHT22;60852;52.190;4.422;2023-03-01T03:45:30;2.29;85.91
68943;DHT22;60852;52.190;4.422;2023-03-01T03:47:59;2.25;85.99
68943;DHT22;60852;52.190;4.422;2023-03-01T03:50:25;2.26;86.04
68943;DHT22;60852;52.190;4.422;2023-03-01T03:52:51;2.19;86.13
68943;DHT22;60852;52.190;4.422;2023-03-01T03:55:16;2.18;86.09
68943;DHT22;60852;52.190;4.422;2023-03-01T03:57:46;2.28;85.72
68943;DHT22;60852;52.190;4.422;2023-03-01T04:00:21;2.33;85.48
68943;DHT22;60852;52.190;4.422;2023-03-01T04:02:50;2.30;85.07
68943;DHT22;60852;52.190;4.422;2023-03-01T04:05:18;2.22;85.19
68943;DHT22;60852;52.190;4.422;2023-03-01T04:07:45;2.22;85.15
68943;DHT22;60852;52.190;4.422;2023-03-01T04:10:14;2.19;85.08
68943;DHT22;60852;52.190;4.422;2023-03-01T04:12:40;2.12;84.99
68943;DHT22;60852;52.190;4.422;2023-03-01T04:15:07;2.07;84.93
68943;DHT22;60852;52.190;4.422;2023-03-01T04:17:40;2.01;85.21
68943;DHT22;60852;52.190;4.422;2023-03-01T04:20:12;2.02;85.23
68943;DHT22;60852;52.190;4.422;2023-03-01T04:22:39;1.97;84.94
68943;DHT22;60852;52.190;4.422;2023-03-01T04:25:06;1.95;85.18
68943;DHT22;60852;52.190;4.422;2023-03-01T04:27:36;2.02;85.09
68943;DHT22;60852;52.190;4.422;2023-03-01T04:30:03;2.01;84.88
68943;DHT22;60852;52.190;4.422;2023-03-01T04:32:29;2.05;84.94
68943;DHT22;60852;52.190;4.422;2023-03-01T04:34:54;2.11;84.79
68943;DHT22;60852;52.190;4.422;2023-03-01T04:37:20;2.08;84.82
68943;DHT22;60852;52.190;4.422;2023-03-01T04:39:45;1.98;84.74
68943;DHT22;60852;52.190;4.422;2023-03-01T04:42:13;1.99;85.00
68943;DHT22;60852;52.190;4.422;2023-03-01T04:44:39;2.09;84.30
68943;DHT22;60852;52.190;4.422;2023-03-01T04:47:05;2.09;84.44
68943;DHT22;60852;52.190;4.422;2023-03-01T04:49:31;2.09;83.77
68943;DHT22;60852;52.190;4.422;2023-03-01T04:51:57;2.12;83.62
68943;DHT22;60852;52.190;4.422;2023-03-01T04:54:34;2.09;83.95
68943;DHT22;60852;52.190;4.422;2023-03-01T04:57:01;2.08;83.88
68943;DHT22;60852;52.190;4.422;2023-03-01T04:59:28;2.08;83.83
68943;DHT22;60852;52.190;4.422;2023-03-01T05:01:55;2.08;83.76
68943;DHT22;60852;52.190;4.422;2023-03-01T05:04:24;2.04;83.73
68943;DHT22;60852;52.190;4.422;2023-03-01T05:06:50;2.02;83.72
68943;DHT22;60852;52.190;4.422;2023-03-01T05:09:16;1.95;83.85
68943;DHT22;60852;52.190;4.422;2023-03-01T05:11:42;1.97;83.62
68943;DHT22;60852;52.190;4.422;2023-03-01T05:14:09;1.87;83.44
68943;DHT22;60852;52.190;4.422;2023-03-01T05:16:36;1.74;83.41
68943;DHT22;60852;52.190;4.422;2023-03-01T05:19:03;1.68;83.68
68943;DHT22;60852;52.190;4.422;2023-03-01T05:21:39;1.66;83.81
68943;DHT22;60852;52.190;4.422;2023-03-01T05:24:24;1.58;84.29
68943;DHT22;60852;52.190;4.422;2023-03-01T05:26:50;1.57;84.62
68943;DHT22;60852;52.190;4.422;2023-03-01T05:29:18;1.57;84.75
68943;DHT22;60852;52.190;4.422;2023-03-01T05:31:44;1.64;84.45
68943;DHT22;60852;52.190;4.422;2023-03-01T05:34:09;1.73;84.25
68943;DHT22;60852;52.190;4.422;2023-03-01T05:36:38;1.81;84.22
68943;DHT22;60852;52.190;4.422;2023-03-01T05:39:03;1.87;84.11
68943;DHT22;60852;52.190;4.422;2023-03-01T05:41:29;1.89;83.93
68943;DHT22;60852;52.190;4.422;2023-03-01T05:43:54;1.89;83.80
68943;DHT22;60852;52.190;4.422;2023-03-01T05:46:20;1.81;83.61
68943;DHT22;60852;52.190;4.422;2023-03-01T05:48:45;1.84;83.59
68943;DHT22;60852;52.190;4.422;2023-03-01T05:51:10;1.85;83.58
68943;DHT22;60852;52.190;4.422;2023-03-01T05:53:37;1.87;83.65
68943;DHT22;60852;52.190;4.422;2023-03-01T05:56:03;1.88;83.73
68943;DHT22;60852;52.190;4.422;2023-03-01T05:58:29;1.91;83.12
68943;DHT22;60852;52.190;4.422;2023-03-01T06:00:54;1.84;83.51
68943;DHT22;60852;52.190;4.422;2023-03-01T06:03:20;1.81;83.39
68943;DHT22;60852;52.190;4.422;2023-03-01T06:05:45;1.81;83.32
68943;DHT22;60852;52.190;4.422;2023-03-01T06:08:11;1.78;83.08
68943;DHT22;60852;52.190;4.422;2023-03-01T06:10:37;1.67;83.24
68943;DHT22;60852;52.190;4.422;2023-03-01T06:13:02;1.58;83.41
68943;DHT22;60852;52.190;4.422;2023-03-01T06:15:28;1.61;83.55
68943;DHT22;60852;52.190;4.422;2023-03-01T06:17:55;1.66;83.56
68943;DHT22;60852;52.190;4.422;2023-03-01T06:20:26;1.61;83.59
68943;DHT22;60852;52.190;4.422;2023-03-01T06:22:52;1.57;83.72
68943;DHT22;60852;52.190;4.422;2023-03-01T06:25:20;1.56;83.96
68943;DHT22;60852;52.190;4.422;2023-03-01T06:27:46;1.56;84.17
68943;DHT22;60852;52.190;4.422;2023-03-01T06:30:14;1.58;84.42
68943;DHT22;60852;52.190;4.422;2023-03-01T06:32:40;1.56;84.57
68943;DHT22;60852;52.190;4.422;2023-03-01T06:35:07;1.56;84.69
68943;DHT22;60852;52.190;4.422;2023-03-01T06:37:33;1.58;84.65
68943;DHT22;60852;52.190;4.422;2023-03-01T06:40:01;1.60;84.60
68943;DHT22;60852;52.190;4.422;2023-03-01T06:42:30;1.60;84.62
68943;DHT22;60852;52.190;4.422;2023-03-01T06:44:55;1.70;84.25
68943;DHT22;60852;52.190;4.422;2023-03-01T06:47:21;1.78;84.20
68943;DHT22;60852;52.190;4.422;2023-03-01T06:49:46;1.81;84.35
68943;DHT22;60852;52.190;4.422;2023-03-01T06:52:12;1.85;84.08
68943;DHT22;60852;52.190;4.422;2023-03-01T06:54:37;1.93;83.76
68943;DHT22;60852;52.190;4.422;2023-03-01T06:57:02;1.97;83.49
68943;DHT22;60852;52.190;4.422;2023-03-01T06:59:28;1.98;83.39
68943;DHT22;60852;52.190;4.422;2023-03-01T07:01:53;2.02;83.19
68943;DHT22;60852;52.190;4.422;2023-03-01T07:04:19;2.02;83.21
68943;DHT22;60852;52.190;4.422;2023-03-01T07:06:44;2.08;83.04
68943;DHT22;60852;52.190;4.422;2023-03-01T07:09:10;2.08;83.00
68943;DHT22;60852;52.190;4.422;2023-03-01T07:11:35;2.14;82.75
68943;DHT22;60852;52.190;4.422;2023-03-01T07:14:01;2.14;82.95
68943;DHT22;60852;52.190;4.422;2023-03-01T07:16:26;2.18;82.86
68943;DHT22;60852;52.190;4.422;2023-03-01T07:18:52;2.21;83.09
68943;DHT22;60852;52.190;4.422;2023-03-01T07:21:17;2.25;82.75
68943;DHT22;60852;52.190;4.422;2023-03-01T07:23:43;2.29;83.15
68943;DHT22;60852;52.190;4.422;2023-03-01T07:26:08;2.29;83.42
68943;DHT22;60852;52.190;4.422;2023-03-01T07:28:34;2.30;83.81
68943;DHT22;60852;52.190;4.422;2023-03-01T07:31:05;2.40;83.92
68943;DHT22;60852;52.190;4.422;2023-03-01T07:33:32;2.47;83.72
68943;DHT22;60852;52.190;4.422;2023-03-01T07:35:59;2.54;83.81
68943;DHT22;60852;52.190;4.422;2023-03-01T07:38:25;2.67;83.70
68943;DHT22;60852;52.190;4.422;2023-03-01T07:40:51;2.77;83.90
68943;DHT22;60852;52.190;4.422;2023-03-01T07:43:17;2.83;84.05
68943;DHT22;60852;52.190;4.422;2023-03-01T07:45:42;2.84;84.21
68943;DHT22;60852;52.190;4.422;2023-03-01T07:48:08;2.86;84.20
68943;DHT22;60852;52.190;4.422;2023-03-01T07:50:33;2.93;84.16
68943;DHT22;60852;52.190;4.422;2023-03-01T07:52:59;3.00;84.08
68943;DHT22;60852;52.190;4.422;2023-03-01T07:55:24;3.03;83.64
68943;DHT22;60852;52.190;4.422;2023-03-01T07:57:50;3.11;83.66
68943;DHT22;60852;52.190;4.422;2023-03-01T08:00:15;3.17;83.77
68943;DHT22;60852;52.190;4.422;2023-03-01T08:02:41;3.25;83.70
68943;DHT22;60852;52.190;4.422;2023-03-01T08:05:08;3.31;83.50
68943;DHT22;60852;52.190;4.422;2023-03-01T08:07:34;3.36;83.60
68943;DHT22;60852;52.190;4.422;2023-03-01T08:10:00;3.43;83.94
68943;DHT22;60852;52.190;4.422;2023-03-01T08:12:25;3.48;83.72
68943;DHT22;60852;52.190;4.422;2023-03-01T08:14:52;3.58;83.98
68943;DHT22;60852;52.190;4.422;2023-03-01T08:17:18;3.58;83.97
68943;DHT22;60852;52.190;4.422;2023-03-01T08:19:43;3.63;84.05
68943;DHT22;60852;52.190;4.422;2023-03-01T08:22:09;3.67;84.10
68943;DHT22;60852;52.190;4.422;2023-03-01T08:24:34;3.69;84.14
68943;DHT22;60852;52.190;4.422;2023-03-01T08:26:59;3.75;84.23
68943;DHT22;60852;52.190;4.422;2023-03-01T08:29:26;3.82;84.42
68943;DHT22;60852;52.190;4.422;2023-03-01T08:31:51;3.90;84.47
68943;DHT22;60852;52.190;4.422;2023-03-01T08:34:18;3.94;84.56
68943;DHT22;60852;52.190;4.422;2023-03-01T08:36:45;4.01;84.47
68943;DHT22;60852;52.190;4.422;2023-03-01T08:39:13;4.14;84.39
68943;DHT22;60852;52.190;4.422;2023-03-01T08:41:40;4.21;84.16
68943;DHT22;60852;52.190;4.422;2023-03-01T08:44:06;4.27;83.94
68943;DHT22;60852;52.190;4.422;2023-03-01T08:46:37;4.37;83.72
68943;DHT22;60852;52.190;4.422;2023-03-01T08:49:08;4.41;83.44
68943;DHT22;60852;52.190;4.422;2023-03-01T08:51:34;4.44;83.28
68943;DHT22;60852;52.190;4.422;2023-03-01T08:54:13;4.49;83.53
68943;DHT22;60852;52.190;4.422;2023-03-01T08:56:40;4.58;83.56
68943;DHT22;60852;52.190;4.422;2023-03-01T08:59:06;4.71;83.15
68943;DHT22;60852;52.190;4.422;2023-03-01T09:01:31;4.72;82.34
68943;DHT22;60852;52.190;4.422;2023-03-01T09:03:56;4.73;82.60
68943;DHT22;60852;52.190;4.422;2023-03-01T09:06:22;4.83;82.31
68943;DHT22;60852;52.190;4.422;2023-03-01T09:08:49;4.87;81.99
68943;DHT22;60852;52.190;4.422;2023-03-01T09:11:20;4.87;81.91
68943;DHT22;60852;52.190;4.422;2023-03-01T09:13:47;4.92;82.15
68943;DHT22;60852;52.190;4.422;2023-03-01T09:16:16;4.95;81.96
68943;DHT22;60852;52.190;4.422;2023-03-01T09:18:43;4.97;82.17
68943;DHT22;60852;52.190;4.422;2023-03-01T09:21:15;5.01;82.19
68943;DHT22;60852;52.190;4.422;2023-03-01T09:23:43;4.95;82.02
68943;DHT22;60852;52.190;4.422;2023-03-01T09:26:12;4.92;82.14
68943;DHT22;60852;52.190;4.422;2023-03-01T09:28:38;4.83;81.98
68943;DHT22;60852;52.190;4.422;2023-03-01T09:31:04;4.66;82.25
68943;DHT22;60852;52.190;4.422;2023-03-01T09:33:31;4.64;82.71
68943;DHT22;60852;52.190;4.422;2023-03-01T09:36:05;4.51;82.59
68943;DHT22;60852;52.190;4.422;2023-03-01T09:38:31;4.22;82.95
68943;DHT22;60852;52.190;4.422;2023-03-01T09:40:57;4.01;83.73
68943;DHT22;60852;52.190;4.422;2023-03-01T09:43:39;3.89;84.03
68943;DHT22;60852;52.190;4.422;2023-03-01T09:46:12;3.86;84.41
68943;DHT22;60852;52.190;4.422;2023-03-01T09:48:49;3.87;84.75
68943;DHT22;60852;52.190;4.422;2023-03-01T09:51:29;4.07;84.86
68943;DHT22;60852;52.190;4.422;2023-03-01T09:53:55;4.04;84.39
68943;DHT22;60852;52.190;4.422;2023-03-01T09:56:40;3.98;84.53
68943;DHT22;60852;52.190;4.422;2023-03-01T09:59:25;3.97;85.00
68943;DHT22;60852;52.190;4.422;2023-03-01T10:04:50;4.20;85.62
68943;DHT22;60852;52.190;4.422;2023-03-01T10:09:54;4.35;85.04
68943;DHT22;60852;52.190;4.422;2023-03-01T10:12:27;4.34;84.42
68943;DHT22;60852;52.190;4.422;2023-03-01T10:15:07;4.38;84.50
68943;DHT22;60852;52.190;4.422;2023-03-01T10:17:51;4.44;84.29
68943;DHT22;60852;52.190;4.422;2023-03-01T10:20:25;4.45;83.88
68943;DHT22;60852;52.190;4.422;2023-03-01T10:22:51;4.44;84.25
68943;DHT22;60852;52.190;4.422;2023-03-01T10:28:05;4.61;84.02
68943;DHT22;60852;52.190;4.422;2023-03-01T10:30:39;4.61;82.99
68943;DHT22;60852;52.190;4.422;2023-03-01T10:33:35;4.51;82.98
68943;DHT22;60852;52.190;4.422;2023-03-01T10:36:03;4.41;83.75
68943;DHT22;60852;52.190;4.422;2023-03-01T10:38:33;4.40;83.67
68943;DHT22;60852;52.190;4.422;2023-03-01T10:41:11;4.49;82.82
68943;DHT22;60852;52.190;4.422;2023-03-01T10:43:56;4.55;82.57
68943;DHT22;60852;52.190;4.422;2023-03-01T10:46:34;4.69;82.25
68943;DHT22;60852;52.190;4.422;2023-03-01T10:49:22;4.86;81.68
68943;DHT22;60852;52.190;4.422;2023-03-01T10:51:50;4.99;79.56
68943;DHT22;60852;52.190;4.422;2023-03-01T10:54:28;5.33;78.32
68943;DHT22;60852;52.190;4.422;2023-03-01T10:56:57;5.85;74.57
68943;DHT22;60852;52.190;4.422;2023-03-01T10:59:32;6.07;73.24
68943;DHT22;60852;52.190;4.422;2023-03-01T11:02:16;6.47;74.00
68943;DHT22;60852;52.190;4.422;2023-03-01T11:07:56;6.77;72.16
68943;DHT22;60852;52.190;4.422;2023-03-01T11:10:26;6.91;70.79
68943;DHT22;60852;52.190;4.422;2023-03-01T11:12:53;7.16;68.84
68943;DHT22;60852;52.190;4.422;2023-03-01T11:15:30;7.14;66.55
68943;DHT22;60852;52.190;4.422;2023-03-01T11:17:57;7.11;66.79
68943;DHT22;60852;52.190;4.422;2023-03-01T11:20:41;6.99;67.21
68943;DHT22;60852;52.190;4.422;2023-03-01T11:23:14;6.95;64.82
68943;DHT22;60852;52.190;4.422;2023-03-01T11:25:43;7.01;63.00
68943;DHT22;60852;52.190;4.422;2023-03-01T11:28:16;7.15;63.26
68943;DHT22;60852;52.190;4.422;2023-03-01T11:31:06;7.32;62.33
68943;DHT22;60852;52.190;4.422;2023-03-01T11:33:44;7.20;60.99
68943;DHT22;60852;52.190;4.422;2023-03-01T11:36:30;6.96;60.65
68943;DHT22;60852;52.190;4.422;2023-03-01T11:39:05;6.91;60.76
68943;DHT22;60852;52.190;4.422;2023-03-01T11:41:40;6.96;58.60
68943;DHT22;60852;52.190;4.422;2023-03-01T11:44:26;7.12;57.55
68943;DHT22;60852;52.190;4.422;2023-03-01T11:50:18;7.27;57.91
68943;DHT22;60852;52.190;4.422;2023-03-01T12:00:47;7.20;54.53
68943;DHT22;60852;52.190;4.422;2023-03-01T12:03:40;7.29;54.38
68943;DHT22;60852;52.190;4.422;2023-03-01T12:11:48;7.30;53.87
68943;DHT22;60852;52.190;4.422;2023-03-01T12:19:50;7.40;53.52
68943;DHT22;60852;52.190;4.422;2023-03-01T12:22:30;7.43;52.85
68943;DHT22;60852;52.190;4.422;2023-03-01T12:25:16;7.27;48.82
68943;DHT22;60852;52.190;4.422;2023-03-01T12:28:14;7.35;50.22
68943;DHT22;60852;52.190;4.422;2023-03-01T12:39:44;7.63;49.05
68943;DHT22;60852;52.190;4.422;2023-03-01T12:42:30;7.59;50.04
68943;DHT22;60852;52.190;4.422;2023-03-01T12:48:27;7.59;52.24
68943;DHT22;60852;52.190;4.422;2023-03-01T12:51:03;7.59;52.29
68943;DHT22;60852;52.190;4.422;2023-03-01T12:53:40;7.40;53.34
68943;DHT22;60852;52.190;4.422;2023-03-01T12:56:11;7.43;54.32
68943;DHT22;60852;52.190;4.422;2023-03-01T13:13:02;7.80;53.55
68943;DHT22;60852;52.190;4.422;2023-03-01T13:15:36;7.99;51.62
68943;DHT22;60852;52.190;4.422;2023-03-01T13:20:49;8.05;49.78
68943;DHT22;60852;52.190;4.422;2023-03-01T13:26:11;8.16;49.53
68943;DHT22;60852;52.190;4.422;2023-03-01T13:28:52;8.09;47.44
68943;DHT22;60852;52.190;4.422;2023-03-01T13:36:45;7.81;49.18
68943;DHT22;60852;52.190;4.422;2023-03-01T13:39:12;7.85;49.80
68943;DHT22;60852;52.190;4.422;2023-03-01T13:41:53;7.78;51.52
68943;DHT22;60852;52.190;4.422;2023-03-01T13:46:50;7.77;52.19
68943;DHT22;60852;52.190;4.422;2023-03-01T13:49:20;7.97;52.28
68943;DHT22;60852;52.190;4.422;2023-03-01T13:51:47;8.18;51.84
68943;DHT22;60852;52.190;4.422;2023-03-01T13:54:16;8.15;51.13
68943;DHT22;60852;52.190;4.422;2023-03-01T13:56:44;8.09;50.43
68943;DHT22;60852;52.190;4.422;2023-03-01T13:59:19;7.90;50.71
68943;DHT22;60852;52.190;4.422;2023-03-01T14:01:53;7.99;49.30
68943;DHT22;60852;52.190;4.422;2023-03-01T14:04:28;8.05;50.59
68943;DHT22;60852;52.190;4.422;2023-03-01T14:07:19;8.04;49.84
68943;DHT22;60852;52.190;4.422;2023-03-01T14:09:48;8.09;49.98
68943;DHT22;60852;52.190;4.422;2023-03-01T14:20:32;7.81;51.47
68943;DHT22;60852;52.190;4.422;2023-03-01T14:23:08;7.98;51.82
68943;DHT22;60852;52.190;4.422;2023-03-01T14:25:36;8.12;50.03
68943;DHT22;60852;52.190;4.422;2023-03-01T14:28:24;8.04;50.45
68943;DHT22;60852;52.190;4.422;2023-03-01T14:30:57;7.93;50.93
68943;DHT22;60852;52.190;4.422;2023-03-01T14:33:32;7.90;51.39
68943;DHT22;60852;52.190;4.422;2023-03-01T14:36:11;7.69;50.10
68943;DHT22;60852;52.190;4.422;2023-03-01T14:38:43;7.78;51.14
68943;DHT22;60852;52.190;4.422;2023-03-01T14:41:13;7.83;49.59
68943;DHT22;60852;52.190;4.422;2023-03-01T14:43:44;7.90;50.66
68943;DHT22;60852;52.190;4.422;2023-03-01T14:46:25;7.91;50.59
68943;DHT22;60852;52.190;4.422;2023-03-01T14:48:54;7.98;50.54
68943;DHT22;60852;52.190;4.422;2023-03-01T14:51:22;7.88;50.18
68943;DHT22;60852;52.190;4.422;2023-03-01T14:53:47;7.87;50.54
68943;DHT22;60852;52.190;4.422;2023-03-01T14:56:16;7.87;50.46
68943;DHT22;60852;52.190;4.422;2023-03-01T14:58:45;7.84;50.75
68943;DHT22;60852;52.190;4.422;2023-03-01T15:01:17;7.85;51.11
68943;DHT22;60852;52.190;4.422;2023-03-01T15:03:47;7.81;51.18
68943;DHT22;60852;52.190;4.422;2023-03-01T15:06:20;7.69;51.70
68943;DHT22;60852;52.190;4.422;2023-03-01T15:08:49;7.69;52.10
68943;DHT22;60852;52.190;4.422;2023-03-01T15:11:20;7.67;52.36
68943;DHT22;60852;52.190;4.422;2023-03-01T15:13:50;7.74;53.21
68943;DHT22;60852;52.190;4.422;2023-03-01T15:16:22;7.87;53.47
68943;DHT22;60852;52.190;4.422;2023-03-01T15:18:52;7.81;53.55
68943;DHT22;60852;52.190;4.422;2023-03-01T15:23:54;7.74;54.51
68943;DHT22;60852;52.190;4.422;2023-03-01T15:26:50;7.84;55.13
68943;DHT22;60852;52.190;4.422;2023-03-01T15:29:21;7.80;53.99
68943;DHT22;60852;52.190;4.422;2023-03-01T15:34:35;7.77;54.19
68943;DHT22;60852;52.190;4.422;2023-03-01T15:37:04;7.80;54.44
68943;DHT22;60852;52.190;4.422;2023-03-01T15:39:42;7.80;54.69
68943;DHT22;60852;52.190;4.422;2023-03-01T15:42:13;7.74;54.47
68943;DHT22;60852;52.190;4.422;2023-03-01T15:44:41;7.59;54.05
68943;DHT22;60852;52.190;4.422;2023-03-01T15:47:29;7.73;54.89
68943;DHT22;60852;52.190;4.422;2023-03-01T15:49:57;7.73;55.47
68943;DHT22;60852;52.190;4.422;2023-03-01T15:52:35;7.71;54.94
68943;DHT22;60852;52.190;4.422;2023-03-01T15:55:28;7.73;54.81
68943;DHT22;60852;52.190;4.422;2023-03-01T15:58:12;7.71;54.96
68943;DHT22;60852;52.190;4.422;2023-03-01T16:00:38;7.77;54.91
68943;DHT22;60852;52.190;4.422;2023-03-01T16:03:05;7.80;54.65
68943;DHT22;60852;52.190;4.422;2023-03-01T16:05:33;7.69;53.72
68943;DHT22;60852;52.190;4.422;2023-03-01T16:08:00;7.62;54.20
68943;DHT22;60852;52.190;4.422;2023-03-01T16:10:26;7.67;54.62
68943;DHT22;60852;52.190;4.422;2023-03-01T16:12:52;7.66;54.41
68943;DHT22;60852;52.190;4.422;2023-03-01T16:15:24;7.67;53.72
68943;DHT22;60852;52.190;4.422;2023-03-01T16:17:50;7.64;54.41
68943;DHT22;60852;52.190;4.422;2023-03-01T16:20:17;7.64;54.06
68943;DHT22;60852;52.190;4.422;2023-03-01T16:22:45;7.54;54.33
68943;DHT22;60852;52.190;4.422;2023-03-01T16:25:15;7.59;54.06
68943;DHT22;60852;52.190;4.422;2023-03-01T16:27:45;7.44;54.29
68943;DHT22;60852;52.190;4.422;2023-03-01T16:30:12;7.46;54.25
68943;DHT22;60852;52.190;4.422;2023-03-01T16:32:40;7.44;54.45
68943;DHT22;60852;52.190;4.422;2023-03-01T16:35:07;7.49;54.58
68943;DHT22;60852;52.190;4.422;2023-03-01T16:37:34;7.43;54.28
68943;DHT22;60852;52.190;4.422;2023-03-01T16:40:00;7.40;54.77
68943;DHT22;60852;52.190;4.422;2023-03-01T16:42:27;7.42;54.64
68943;DHT22;60852;52.190;4.422;2023-03-01T16:44:56;7.42;54.38
68943;DHT22;60852;52.190;4.422;2023-03-01T16:47:22;7.36;54.60
68943;DHT22;60852;52.190;4.422;2023-03-01T16:49:47;7.39;54.46
68943;DHT22;60852;52.190;4.422;2023-03-01T16:52:16;7.35;54.69
68943;DHT22;60852;52.190;4.422;2023-03-01T16:54:41;7.30;54.17
68943;DHT22;60852;52.190;4.422;2023-03-01T16:57:07;7.26;54.48
68943;DHT22;60852;52.190;4.422;2023-03-01T16:59:32;7.20;54.60
68943;DHT22;60852;52.190;4.422;2023-03-01T17:01:58;7.22;54.59
68943;DHT22;60852;52.190;4.422;2023-03-01T17:04:23;7.16;54.79
68943;DHT22;60852;52.190;4.422;2023-03-01T17:06:49;7.20;55.08
68943;DHT22;60852;52.190;4.422;2023-03-01T17:09:15;7.11;54.69
68943;DHT22;60852;52.190;4.422;2023-03-01T17:11:42;7.06;55.30
68943;DHT22;60852;52.190;4.422;2023-03-01T17:14:08;7.06;55.28
68943;DHT22;60852;52.190;4.422;2023-03-01T17:16:34;7.08;55.18
68943;DHT22;60852;52.190;4.422;2023-03-01T17:19:00;6.95;55.66
68943;DHT22;60852;52.190;4.422;2023-03-01T17:21:26;6.95;55.79
68943;DHT22;60852;52.190;4.422;2023-03-01T17:23:55;6.96;56.02
68943;DHT22;60852;52.190;4.422;2023-03-01T17:26:21;6.94;56.06
68943;DHT22;60852;52.190;4.422;2023-03-01T17:28:47;6.84;56.46
68943;DHT22;60852;52.190;4.422;2023-03-01T17:31:17;6.75;56.88
68943;DHT22;60852;52.190;4.422;2023-03-01T17:33:42;6.70;56.79
68943;DHT22;60852;52.190;4.422;2023-03-01T17:36:08;6.67;56.80